createdAt,value
2018-01-03T00:00:49.540Z,1000.79
2018-01-03T00:01:59.492Z,1000.73
2018-01-03T00:03:09.198Z,1000.68
2018-01-03T00:04:18.880Z,1000.66
2018-01-03T00:05:28.346Z,1000.58
2018-01-03T00:06:38.037Z,1000.55
2018-01-03T00:07:47.757Z,1000.55
2018-01-03T00:08:57.444Z,1000.54
2018-01-03T00:10:07.134Z,1000.5
2018-01-03T00:11:17.067Z,1000.39
2018-01-03T00:12:26.997Z,1000.35
2018-01-03T00:13:36.671Z,1000.33
2018-01-03T00:14:46.612Z,1000.25
2018-01-03T00:15:56.310Z,1000.22
2018-01-03T00:17:06.257Z,1000.11
2018-01-03T00:18:16.237Z,1000.08
2018-01-03T00:19:25.931Z,999.99
2018-01-03T00:20:35.627Z,999.96
2018-01-03T00:21:45.566Z,999.95
2018-01-03T00:22:55.255Z,999.96
2018-01-03T00:24:04.952Z,999.93
2018-01-03T00:25:14.666Z,999.92
2018-01-03T00:26:24.602Z,999.9
2018-01-03T00:27:34.547Z,999.83
2018-01-03T00:28:43.990Z,999.76
2018-01-03T00:29:53.920Z,999.81
2018-01-03T00:31:03.604Z,999.78
2018-01-03T00:32:13.293Z,999.73
2018-01-03T00:33:23.240Z,999.72
2018-01-03T00:34:33.200Z,999.66
2018-01-03T00:35:43.149Z,999.65
2018-01-03T00:36:52.882Z,999.61
2018-01-03T00:38:02.832Z,999.6
2018-01-03T00:39:12.787Z,999.57
2018-01-03T00:40:22.204Z,999.56
2018-01-03T00:41:31.646Z,999.5
2018-01-03T00:42:41.580Z,999.47
2018-01-03T00:43:51.529Z,999.38
2018-01-03T00:45:01.216Z,999.39
2018-01-03T00:46:11.194Z,999.42
2018-01-03T00:47:21.136Z,999.39
2018-01-03T00:48:31.079Z,999.35
2018-01-03T00:49:41.029Z,999.3
2018-01-03T00:50:50.973Z,999.22
2018-01-03T00:52:00.671Z,999.21
2018-01-03T00:53:10.602Z,999.14
2018-01-03T00:54:20.594Z,999.09
2018-01-03T00:55:30.551Z,999.12
2018-01-03T00:56:40.270Z,999.07
2018-01-03T00:57:50.210Z,999.07
2018-01-03T00:59:00.145Z,999.02
2018-01-03T01:00:09.881Z,999.02
2018-01-03T01:01:19.830Z,999
2018-01-03T01:02:29.780Z,998.94
2018-01-03T01:03:39.714Z,998.89
2018-01-03T01:04:49.401Z,998.84
2018-01-03T01:05:59.350Z,998.86
2018-01-03T01:07:09.041Z,998.76
2018-01-03T01:08:18.988Z,998.73
2018-01-03T01:09:28.924Z,998.75
2018-01-03T01:10:38.611Z,998.71
2018-01-03T01:11:48.546Z,998.66
2018-01-03T01:12:58.480Z,998.65
2018-01-03T01:14:08.175Z,998.57
2018-01-03T01:15:18.129Z,998.54
2018-01-03T01:16:28.080Z,998.5
2018-01-03T01:17:38.044Z,998.43
2018-01-03T01:18:47.749Z,998.41
2018-01-03T01:19:57.724Z,998.42
2018-01-03T01:21:07.657Z,998.39
2018-01-03T01:22:17.605Z,998.34
2018-01-03T01:23:27.290Z,998.3
2018-01-03T01:24:36.972Z,998.3
2018-01-03T01:25:46.907Z,998.27
2018-01-03T01:26:56.333Z,998.21
2018-01-03T01:28:06.289Z,998.12
2018-01-03T01:29:15.996Z,998.04
2018-01-03T01:30:25.697Z,997.98
2018-01-03T01:31:35.644Z,997.91
2018-01-03T01:32:45.103Z,997.92
2018-01-03T01:33:54.798Z,997.82
2018-01-03T01:35:04.484Z,997.8
2018-01-03T01:36:14.182Z,997.73
2018-01-03T01:37:24.185Z,997.77
2018-01-03T01:38:34.122Z,997.75
2018-01-03T01:39:44.078Z,997.66
2018-01-03T01:40:54.015Z,997.64
2018-01-03T01:42:03.956Z,997.6
2018-01-03T01:43:13.899Z,997.57
2018-01-03T01:44:23.851Z,997.52
2018-01-03T01:45:33.792Z,997.4
2018-01-03T01:46:43.479Z,997.42
2018-01-03T01:47:53.432Z,997.34
2018-01-03T01:49:03.381Z,997.35
2018-01-03T01:50:13.319Z,997.33
2018-01-03T01:51:23.250Z,997.37
2018-01-03T01:52:33.220Z,997.29
2018-01-03T01:53:43.157Z,997.25
2018-01-03T01:54:52.845Z,997.22
2018-01-03T01:56:02.521Z,997.14
2018-01-03T01:57:12.500Z,997.03
2018-01-03T01:58:22.183Z,996.98
2018-01-03T01:59:31.865Z,996.98
2018-01-03T02:00:41.572Z,996.95
2018-01-03T02:01:51.502Z,996.89
2018-01-03T02:03:01.452Z,996.83
2018-01-03T02:04:11.426Z,996.74
2018-01-03T02:05:21.165Z,996.68
2018-01-03T02:06:31.105Z,996.64
2018-01-03T02:07:40.790Z,996.58
2018-01-03T02:08:50.474Z,996.51
2018-01-03T02:09:59.901Z,996.43
2018-01-03T02:11:09.830Z,996.42
2018-01-03T02:12:19.780Z,996.34
2018-01-03T02:13:29.463Z,996.3
2018-01-03T02:14:39.141Z,996.24
2018-01-03T02:15:48.822Z,996.29
2018-01-03T02:16:58.764Z,996.2
2018-01-03T02:18:08.712Z,996.13
2018-01-03T02:19:18.666Z,996.06
2018-01-03T02:20:28.366Z,996.08
2018-01-03T02:21:38.311Z,996.11
2018-01-03T02:22:48.246Z,996.04
2018-01-03T02:23:58.228Z,995.98
2018-01-03T02:25:08.177Z,995.97
2018-01-03T02:26:17.865Z,995.94
2018-01-03T02:27:27.809Z,995.89
2018-01-03T02:28:37.483Z,995.89
2018-01-03T02:29:47.430Z,995.86
2018-01-03T02:30:57.128Z,995.74
2018-01-03T02:32:06.558Z,995.66
2018-01-03T02:33:16.003Z,995.65
2018-01-03T02:34:25.698Z,995.49
2018-01-03T02:35:35.651Z,995.48
2018-01-03T02:36:45.614Z,995.39
2018-01-03T02:37:55.558Z,995.42
2018-01-03T02:39:05.494Z,995.34
2018-01-03T02:40:15.410Z,995.24
2018-01-03T02:41:25.374Z,995.13
2018-01-03T02:42:35.331Z,995.09
2018-01-03T02:43:45.075Z,995.02
2018-01-03T02:44:54.512Z,995.02
2018-01-03T02:46:04.471Z,994.99
2018-01-03T02:47:14.426Z,994.88
2018-01-03T02:48:24.119Z,994.84
2018-01-03T02:49:34.063Z,994.79
2018-01-03T02:50:44.007Z,994.72
2018-01-03T02:51:53.696Z,994.69
2018-01-03T02:53:03.647Z,994.64
2018-01-03T02:54:13.590Z,994.54
2018-01-03T02:55:23.537Z,994.5
2018-01-03T02:56:33.490Z,994.54
2018-01-03T02:57:43.421Z,994.5
2018-01-03T02:58:53.360Z,994.45
2018-01-03T03:00:03.066Z,994.37
2018-01-03T03:01:12.492Z,994.32
2018-01-03T03:02:22.425Z,994.3
2018-01-03T03:03:32.111Z,994.26
2018-01-03T03:04:42.047Z,994.23
2018-01-03T03:05:51.734Z,994.15
2018-01-03T03:07:01.690Z,994.08
2018-01-03T03:08:11.628Z,994.03
2018-01-03T03:09:21.593Z,994.04
2018-01-03T03:10:31.530Z,994.03
2018-01-03T03:11:40.956Z,993.95
2018-01-03T03:12:50.907Z,993.91
2018-01-03T03:14:00.842Z,993.97
2018-01-03T03:15:10.279Z,993.93
2018-01-03T03:16:20.212Z,993.89
2018-01-03T03:17:30.151Z,993.73
2018-01-03T03:18:40.087Z,993.66
2018-01-03T03:19:50.047Z,993.59
2018-01-03T03:21:00.006Z,993.56
2018-01-03T03:22:09.695Z,993.48
2018-01-03T03:23:19.637Z,993.41
2018-01-03T03:24:29.568Z,993.38
2018-01-03T03:25:39.515Z,993.3
2018-01-03T03:26:49.453Z,993.28
2018-01-03T03:27:59.139Z,993.28
2018-01-03T03:29:09.079Z,993.16
2018-01-03T03:30:19.035Z,993.09
2018-01-03T03:31:28.716Z,993.06
2018-01-03T03:32:38.654Z,993.06
2018-01-03T03:33:48.586Z,993.04
2018-01-03T03:34:58.269Z,992.97
2018-01-03T03:36:07.948Z,992.95
2018-01-03T03:37:17.620Z,992.95
2018-01-03T03:38:27.306Z,992.94
2018-01-03T03:39:37.237Z,992.97
2018-01-03T03:40:47.184Z,992.9
2018-01-03T03:41:57.118Z,992.84
2018-01-03T03:43:07.081Z,992.79
2018-01-03T03:44:17.058Z,992.75
2018-01-03T03:45:26.986Z,992.66
2018-01-03T03:46:36.921Z,992.59
2018-01-03T03:47:46.448Z,992.46
2018-01-03T03:48:57.328Z,992.53
2018-01-03T03:50:39.193Z,992.44
2018-01-03T03:52:20.979Z,992.46
2018-01-03T03:53:30.668Z,992.35
2018-01-03T03:54:40.367Z,992.33
2018-01-03T03:55:50.318Z,992.23
2018-01-03T03:57:00.270Z,992.22
2018-01-03T03:58:10.213Z,992.14
2018-01-03T03:59:19.892Z,992.14
2018-01-03T04:00:29.589Z,992.04
2018-01-03T04:01:39.276Z,992
2018-01-03T04:02:48.952Z,991.83
2018-01-03T04:03:58.638Z,991.88
2018-01-03T04:05:08.582Z,991.94
2018-01-03T04:06:18.605Z,991.82
2018-01-03T04:07:28.548Z,991.78
2018-01-03T04:08:37.984Z,991.73
2018-01-03T04:09:47.710Z,991.67
2018-01-03T04:10:57.650Z,991.59
2018-01-03T04:12:07.585Z,991.44
2018-01-03T04:13:17.544Z,991.48
2018-01-03T04:14:27.492Z,991.46
2018-01-03T04:15:36.924Z,991.39
2018-01-03T04:16:46.606Z,991.25
2018-01-03T04:17:56.545Z,991.16
2018-01-03T04:19:06.280Z,991.11
2018-01-03T04:20:16.232Z,991.04
2018-01-03T04:21:26.247Z,990.96
2018-01-03T04:22:36.190Z,990.9
2018-01-03T04:23:46.134Z,990.83
2018-01-03T04:24:56.080Z,990.84
2018-01-03T04:26:05.765Z,990.77
2018-01-03T04:27:15.706Z,990.7
2018-01-03T04:28:25.386Z,990.62
2018-01-03T04:29:35.316Z,990.62
2018-01-03T04:30:44.739Z,990.52
2018-01-03T04:31:54.421Z,990.51
2018-01-03T04:33:04.105Z,990.28
2018-01-03T04:34:14.090Z,990.25
2018-01-03T04:35:24.025Z,990.28
2018-01-03T04:36:33.706Z,990.19
2018-01-03T04:37:43.641Z,990.1
2018-01-03T04:38:53.337Z,990.05
2018-01-03T04:40:03.017Z,990.02
2018-01-03T04:41:12.709Z,989.97
2018-01-03T04:42:22.389Z,989.91
2018-01-03T04:43:32.323Z,989.96
2018-01-03T04:44:42.266Z,990
2018-01-03T04:45:51.960Z,989.95
2018-01-03T04:47:01.918Z,989.91
2018-01-03T04:48:11.869Z,989.78
2018-01-03T04:49:21.807Z,989.86
2018-01-03T04:50:31.746Z,989.75
2018-01-03T04:51:41.693Z,989.66
2018-01-03T04:52:51.637Z,989.57
2018-01-03T04:54:01.580Z,989.45
2018-01-03T04:55:11.271Z,989.21
2018-01-03T04:56:21.210Z,989.2
2018-01-03T04:57:30.900Z,989.07
2018-01-03T04:58:40.830Z,988.99
2018-01-03T04:59:50.517Z,988.9
2018-01-03T05:01:00.469Z,988.78
2018-01-03T05:02:10.199Z,988.63
2018-01-03T05:03:19.821Z,988.44
2018-01-03T05:04:29.506Z,988.27
2018-01-03T05:05:39.449Z,988.18
2018-01-03T05:06:49.141Z,988.26
2018-01-03T05:07:59.073Z,988.32
2018-01-03T05:09:08.770Z,988.56
2018-01-03T05:10:18.454Z,988.51
2018-01-03T05:11:28.391Z,988.45
2018-01-03T05:12:38.348Z,988.43
2018-01-03T05:13:48.293Z,988.32
2018-01-03T05:14:58.223Z,988.37
2018-01-03T05:16:08.165Z,988.22
2018-01-03T05:17:18.110Z,988.24
2018-01-03T05:18:27.541Z,988.15
2018-01-03T05:19:37.484Z,988.1
2018-01-03T05:20:46.905Z,988.03
2018-01-03T05:21:56.836Z,987.98
2018-01-03T05:23:06.774Z,987.98
2018-01-03T05:24:16.458Z,987.87
2018-01-03T05:25:26.411Z,987.79
2018-01-03T05:26:36.396Z,987.71
2018-01-03T05:27:46.336Z,987.71
2018-01-03T05:28:56.024Z,987.61
2018-01-03T05:30:06.009Z,987.58
2018-01-03T05:31:15.947Z,987.59
2018-01-03T05:32:25.959Z,987.5
2018-01-03T05:33:35.671Z,987.56
2018-01-03T05:34:45.366Z,987.49
2018-01-03T05:35:55.332Z,987.49
2018-01-03T05:37:05.022Z,987.47
2018-01-03T05:38:14.708Z,987.45
2018-01-03T05:39:24.134Z,987.39
2018-01-03T05:40:34.080Z,987.29
2018-01-03T05:41:43.757Z,987.3
2018-01-03T05:42:53.699Z,987.21
2018-01-03T05:44:03.391Z,987.2
2018-01-03T05:45:13.325Z,987.06
2018-01-03T05:46:23.262Z,987.05
2018-01-03T05:47:33.204Z,987.04
2018-01-03T05:48:42.635Z,987.02
2018-01-03T05:49:52.588Z,986.96
2018-01-03T05:51:02.541Z,986.92
2018-01-03T05:52:12.479Z,986.9
2018-01-03T05:53:22.418Z,986.82
2018-01-03T05:54:32.350Z,986.75
2018-01-03T05:55:42.033Z,986.64
2018-01-03T05:56:51.965Z,986.66
2018-01-03T05:58:01.902Z,986.61
2018-01-03T05:59:11.851Z,986.48
2018-01-03T06:00:21.800Z,986.39
2018-01-03T06:01:31.492Z,986.47
2018-01-03T06:02:41.177Z,986.34
2018-01-03T06:03:51.132Z,986.29
2018-01-03T06:05:00.558Z,986.34
2018-01-03T06:06:10.499Z,986.36
2018-01-03T06:07:20.186Z,986.29
2018-01-03T06:08:30.132Z,986.21
2018-01-03T06:09:40.074Z,986.22
2018-01-03T06:10:50.009Z,986.24
2018-01-03T06:11:59.467Z,986.19
2018-01-03T06:13:08.903Z,986.16
2018-01-03T06:14:18.593Z,986.16
2018-01-03T06:15:28.273Z,985.94
2018-01-03T06:16:37.703Z,985.79
2018-01-03T06:17:47.391Z,985.87
2018-01-03T06:18:57.346Z,985.71
2018-01-03T06:20:07.044Z,985.73
2018-01-03T06:21:17.008Z,985.58
2018-01-03T06:22:26.714Z,985.4
2018-01-03T06:23:36.677Z,985.35
2018-01-03T06:24:46.378Z,985.23
2018-01-03T06:25:56.102Z,985.13
2018-01-03T06:27:06.045Z,984.99
2018-01-03T06:28:15.735Z,984.84
2018-01-03T06:29:25.478Z,984.83
2018-01-03T06:30:35.213Z,984.74
2018-01-03T06:31:45.278Z,984.67
2018-01-03T06:32:55.233Z,984.62
2018-01-03T06:34:05.204Z,984.65
2018-01-03T06:35:14.887Z,984.65
2018-01-03T06:36:24.832Z,984.73
2018-01-03T06:37:34.519Z,984.66
2018-01-03T06:38:44.468Z,984.58
2018-01-03T06:39:54.402Z,984.51
2018-01-03T06:41:04.091Z,984.57
2018-01-03T06:42:14.043Z,984.38
2018-01-03T06:43:23.752Z,984.35
2018-01-03T06:44:33.709Z,984.37
2018-01-03T06:45:43.410Z,984.29
2018-01-03T06:46:53.398Z,984.09
2018-01-03T06:48:03.367Z,984.04
2018-01-03T06:49:13.315Z,984.08
2018-01-03T06:50:22.996Z,983.9
2018-01-03T06:51:32.948Z,983.92
2018-01-03T06:52:42.651Z,983.91
2018-01-03T06:53:52.346Z,983.8
2018-01-03T06:55:02.306Z,983.67
2018-01-03T06:56:12.252Z,983.7
2018-01-03T06:57:22.198Z,983.61
2018-01-03T06:58:32.145Z,983.51
2018-01-03T06:59:41.843Z,983.42
2018-01-03T07:00:51.548Z,983.36
2018-01-03T07:02:01.503Z,983.2
2018-01-03T07:03:11.448Z,983.23
2018-01-03T07:04:21.148Z,983.16
2018-01-03T07:05:31.090Z,983.07
2018-01-03T07:06:40.789Z,982.98
2018-01-03T07:07:50.483Z,982.96
2018-01-03T07:09:00.431Z,982.87
2018-01-03T07:10:10.394Z,982.84
2018-01-03T07:11:20.354Z,982.77
2018-01-03T07:12:30.050Z,982.83
2018-01-03T07:13:39.985Z,982.68
2018-01-03T07:14:49.929Z,982.75
2018-01-03T07:15:59.884Z,982.77
2018-01-03T07:17:09.853Z,982.65
2018-01-03T07:18:19.814Z,982.68
2018-01-03T07:19:29.575Z,982.63
2018-01-03T07:20:39.526Z,982.5
2018-01-03T07:21:49.512Z,982.39
2018-01-03T07:22:59.215Z,982.35
2018-01-03T07:24:08.917Z,982.39
2018-01-03T07:25:18.870Z,982.37
2018-01-03T07:26:28.822Z,982.27
2018-01-03T07:27:38.505Z,982.28
2018-01-03T07:28:48.196Z,982.11
2018-01-03T07:29:58.144Z,982.1
2018-01-03T07:31:33.720Z,982.11
2018-01-03T07:32:45.008Z,982.04
2018-01-03T07:33:58.342Z,982.12
2018-01-03T07:35:30.811Z,982.09
2018-01-03T07:36:40.755Z,981.97
2018-01-03T07:37:50.728Z,981.88
2018-01-03T07:39:01.292Z,981.95
2018-01-03T07:40:11.058Z,981.86
2018-01-03T07:41:20.996Z,981.97
2018-01-03T07:42:31.259Z,982.01
2018-01-03T07:43:41.238Z,981.98
2018-01-03T07:44:51.192Z,981.93
2018-01-03T07:46:01.150Z,981.94
2018-01-03T07:47:11.101Z,982.02
2018-01-03T07:48:21.041Z,981.96
2018-01-03T07:49:31.908Z,981.86
2018-01-03T07:50:41.897Z,981.78
2018-01-03T07:51:52.103Z,981.68
2018-01-03T07:53:01.797Z,981.67
2018-01-03T07:54:11.747Z,981.67
2018-01-03T07:55:21.706Z,981.59
2018-01-03T07:56:31.681Z,981.55
2018-01-03T07:57:41.442Z,981.46
2018-01-03T07:58:51.399Z,981.37
2018-01-03T08:00:01.356Z,981.32
2018-01-03T08:01:11.331Z,981.18
2018-01-03T08:02:21.047Z,981.27
2018-01-03T08:03:30.767Z,981.17
2018-01-03T08:04:40.461Z,981.26
2018-01-03T08:05:49.921Z,981.15
2018-01-03T08:07:00.120Z,981.1
2018-01-03T08:08:14.778Z,981.12
2018-01-03T08:09:24.781Z,981.09
2018-01-03T08:10:34.757Z,981.07
2018-01-03T08:11:44.454Z,980.88
2018-01-03T08:12:54.534Z,980.82
2018-01-03T08:14:04.260Z,980.91
2018-01-03T08:15:14.209Z,980.68
2018-01-03T08:16:23.912Z,980.62
2018-01-03T08:17:33.869Z,980.66
2018-01-03T08:18:43.826Z,980.55
2018-01-03T08:19:53.771Z,980.61
2018-01-03T08:21:03.487Z,980.53
2018-01-03T08:22:13.211Z,980.42
2018-01-03T08:23:23.169Z,980.33
2018-01-03T08:24:33.131Z,980.17
2018-01-03T08:25:42.589Z,980.18
2018-01-03T08:26:52.559Z,980.09
2018-01-03T08:28:02.510Z,980.07
2018-01-03T08:29:12.459Z,979.92
2018-01-03T08:30:22.408Z,979.83
2018-01-03T08:31:32.106Z,979.67
2018-01-03T08:32:42.074Z,979.66
2018-01-03T08:33:52.052Z,979.52
2018-01-03T08:35:02.036Z,979.39
2018-01-03T08:36:12.016Z,979.37
2018-01-03T08:37:21.985Z,979.18
2018-01-03T08:38:31.975Z,979.13
2018-01-03T08:39:41.974Z,979.21
2018-01-03T08:40:51.962Z,979.16
2018-01-03T08:42:01.935Z,979
2018-01-03T08:43:11.885Z,979
2018-01-03T08:44:21.852Z,978.98
2018-01-03T08:45:31.541Z,978.89
2018-01-03T08:46:41.509Z,979.05
2018-01-03T08:47:51.210Z,979.13
2018-01-03T08:49:00.912Z,979.46
2018-01-03T08:50:10.861Z,979.67
2018-01-03T08:51:20.816Z,979.74
2018-01-03T08:52:30.810Z,979.57
2018-01-03T08:53:40.500Z,979.68
2018-01-03T08:54:50.462Z,979.76
2018-01-03T08:56:00.241Z,979.86
2018-01-03T08:57:09.964Z,979.63
2018-01-03T08:58:19.923Z,979.46
2018-01-03T08:59:29.652Z,979.43
2018-01-03T09:00:39.359Z,979.45
2018-01-03T09:01:49.316Z,979.5
2018-01-03T09:03:36.145Z,979.61
2018-01-03T09:05:17.933Z,979.54
2018-01-03T09:06:59.735Z,979.44
2018-01-03T09:08:09.696Z,979.35
2018-01-03T09:09:19.666Z,979.36
2018-01-03T09:10:29.644Z,979.39
2018-01-03T09:11:39.619Z,979.51
2018-01-03T09:12:49.640Z,979.46
2018-01-03T09:13:59.339Z,979.53
2018-01-03T09:15:09.304Z,979.48
2018-01-03T09:16:18.741Z,979.45
2018-01-03T09:17:28.714Z,979.51
2018-01-03T09:18:38.666Z,979.48
2018-01-03T09:19:48.629Z,979.46
2018-01-03T09:20:58.615Z,979.33
2018-01-03T09:22:08.558Z,979.35
2018-01-03T09:23:18.275Z,979.45
2018-01-03T09:24:28.256Z,979.45
2018-01-03T09:25:37.963Z,979.53
2018-01-03T09:26:47.694Z,979.49
2018-01-03T09:27:57.659Z,979.57
2018-01-03T09:29:07.635Z,979.34
2018-01-03T09:30:17.610Z,979.19
2018-01-03T09:31:27.313Z,979.08
2018-01-03T09:32:37.507Z,979.01
2018-01-03T09:33:47.223Z,979.23
2018-01-03T09:34:56.918Z,979.23
2018-01-03T09:36:06.914Z,979.32
2018-01-03T09:37:16.604Z,979.18
2018-01-03T09:38:26.338Z,979.19
2018-01-03T09:39:36.298Z,979.1
2018-01-03T09:40:46.270Z,979.1
2018-01-03T09:41:55.995Z,978.92
2018-01-03T09:43:05.997Z,978.96
2018-01-03T09:44:15.774Z,979.09
2018-01-03T09:45:25.761Z,979.23
2018-01-03T09:46:35.737Z,979.16
2018-01-03T09:47:45.717Z,979.17
2018-01-03T09:48:55.403Z,979.18
2018-01-03T09:50:05.344Z,979.15
2018-01-03T09:51:15.311Z,979.16
2018-01-03T09:52:25.282Z,979.01
2018-01-03T09:53:34.979Z,978.93
2018-01-03T09:54:44.670Z,978.97
2018-01-03T09:55:54.622Z,978.93
2018-01-03T09:57:04.603Z,978.93
2018-01-03T09:58:14.578Z,978.98
2018-01-03T09:59:24.526Z,978.92
2018-01-03T10:00:34.216Z,978.9
2018-01-03T10:01:44.166Z,978.95
2018-01-03T10:02:54.121Z,978.97
2018-01-03T10:04:03.546Z,979.02
2018-01-03T10:05:13.746Z,979.08
2018-01-03T10:06:23.714Z,979.13
2018-01-03T10:07:33.674Z,979.07
2018-01-03T10:08:43.637Z,979.06
2018-01-03T10:09:53.586Z,979.1
2018-01-03T10:11:03.533Z,979.11
2018-01-03T10:12:13.213Z,979.1
2018-01-03T10:15:36.794Z,979.22
2018-01-03T10:16:46.762Z,979.22
2018-01-03T10:17:56.720Z,979.27
2018-01-03T10:19:06.688Z,979.27
2018-01-03T10:20:16.897Z,979.32
2018-01-03T10:23:11.410Z,979.12
2018-01-03T10:24:52.954Z,979.18
2018-01-03T10:26:02.925Z,979.05
2018-01-03T10:27:12.374Z,979.1
2018-01-03T10:28:22.351Z,979.11
2018-01-03T10:29:32.317Z,979.07
2018-01-03T10:30:42.270Z,979.13
2018-01-03T10:31:51.964Z,979.08
2018-01-03T10:33:01.919Z,979.21
2018-01-03T10:34:11.894Z,979.24
2018-01-03T10:35:21.593Z,979.21
2018-01-03T10:36:31.542Z,979.28
2018-01-03T10:37:41.501Z,979.25
2018-01-03T10:38:51.221Z,979.27
2018-01-03T10:40:00.963Z,979.26
2018-01-03T10:41:10.916Z,979.37
2018-01-03T10:42:20.883Z,979.2
2018-01-03T10:43:30.844Z,979.17
2018-01-03T10:44:40.830Z,979.08
2018-01-03T10:45:50.796Z,979.14
2018-01-03T10:47:00.828Z,979.13
2018-01-03T10:48:10.262Z,979.22
2018-01-03T10:49:20.235Z,979.24
2018-01-03T10:50:29.925Z,979.19
2018-01-03T10:51:39.643Z,979.11
2018-01-03T10:52:49.591Z,979.02
2018-01-03T10:53:59.546Z,979.04
2018-01-03T10:55:09.519Z,978.93
2018-01-03T10:56:19.467Z,978.94
2018-01-03T10:57:29.451Z,978.93
2018-01-03T10:58:39.154Z,978.94
2018-01-03T10:59:49.161Z,978.98
2018-01-03T11:00:59.128Z,979.21
2018-01-03T11:02:08.922Z,979.14
2018-01-03T11:03:18.905Z,979.09
2018-01-03T11:04:28.910Z,979.05
2018-01-03T11:05:38.901Z,978.92
2018-01-03T11:06:48.940Z,978.9
2018-01-03T11:07:58.916Z,978.85
2018-01-03T11:09:08.872Z,978.87
2018-01-03T11:10:18.582Z,978.84
2018-01-03T11:11:28.315Z,978.93
2018-01-03T11:12:38.316Z,978.88
2018-01-03T11:13:48.014Z,978.76
2018-01-03T11:14:57.466Z,978.67
2018-01-03T11:16:07.196Z,978.72
2018-01-03T11:17:17.150Z,978.7
2018-01-03T11:18:27.095Z,978.63
2018-01-03T11:19:37.058Z,978.74
2018-01-03T11:20:46.512Z,978.83
2018-01-03T11:21:56.461Z,978.83
2018-01-03T11:23:06.482Z,978.77
2018-01-03T11:24:16.729Z,978.66
2018-01-03T11:25:26.425Z,978.61
2018-01-03T11:26:36.383Z,978.59
2018-01-03T11:27:46.369Z,978.58
2018-01-03T11:28:56.558Z,978.68
2018-01-03T11:30:06.266Z,978.78
2018-01-03T11:31:16.233Z,978.78
2018-01-03T11:32:25.941Z,978.73
2018-01-03T11:33:35.658Z,978.67
2018-01-03T11:34:45.624Z,978.66
2018-01-03T11:35:55.361Z,978.66
2018-01-03T11:37:05.441Z,978.49
2018-01-03T11:38:15.397Z,978.53
2018-01-03T11:39:25.095Z,978.48
2018-01-03T11:40:35.055Z,978.54
2018-01-03T11:41:45.066Z,978.57
2018-01-03T11:42:55.047Z,978.58
2018-01-03T11:44:04.996Z,978.59
2018-01-03T11:45:14.959Z,978.61
2018-01-03T11:46:24.725Z,978.62
2018-01-03T11:47:34.163Z,978.64
2018-01-03T11:48:43.864Z,978.63
2018-01-03T11:49:53.562Z,978.62
2018-01-03T11:51:03.253Z,978.65
2018-01-03T11:52:12.683Z,978.66
2018-01-03T11:53:22.630Z,978.65
2018-01-03T11:54:32.600Z,978.71
2018-01-03T11:55:42.566Z,978.65
2018-01-03T11:56:52.544Z,978.61
2018-01-03T11:58:02.252Z,978.61
2018-01-03T11:59:12.201Z,978.59
2018-01-03T12:00:22.171Z,978.74
2018-01-03T12:01:32.145Z,978.66
2018-01-03T12:02:41.857Z,978.57
2018-01-03T12:03:51.820Z,978.6
2018-01-03T12:05:01.781Z,978.52
2018-01-03T12:06:11.505Z,978.62
2018-01-03T12:07:21.197Z,978.63
2018-01-03T12:08:30.905Z,978.63
2018-01-03T12:09:40.608Z,978.62
2018-01-03T12:10:50.573Z,978.68
2018-01-03T12:12:00.534Z,978.68
2018-01-03T12:13:09.985Z,978.64
2018-01-03T12:14:19.416Z,978.69
2018-01-03T12:15:29.155Z,978.76
2018-01-03T12:16:38.877Z,978.71
2018-01-03T12:17:48.826Z,978.83
2018-01-03T12:18:58.517Z,978.93
2018-01-03T12:20:08.471Z,978.84
2018-01-03T12:21:18.437Z,979.02
2018-01-03T12:22:28.377Z,979.06
2018-01-03T12:23:37.821Z,979.44
2018-01-03T12:24:47.794Z,979.53
2018-01-03T12:25:57.987Z,979.55
2018-01-03T12:27:07.997Z,979.87
2018-01-03T12:28:17.982Z,979.61
2018-01-03T12:29:28.004Z,979.55
2018-01-03T12:31:09.809Z,979.39
2018-01-03T12:32:19.746Z,979.4
2018-01-03T12:33:39.731Z,979.44
2018-01-03T12:35:21.556Z,979.51
2018-01-03T12:37:35.194Z,979.45
2018-01-03T12:38:45.152Z,979.72
2018-01-03T12:39:54.899Z,979.54
2018-01-03T12:41:04.858Z,979.65
2018-01-03T12:42:14.564Z,979.43
2018-01-03T12:43:24.518Z,979.56
2018-01-03T12:44:34.494Z,979.59
2018-01-03T12:45:44.489Z,979.61
2018-01-03T12:46:54.453Z,979.54
2018-01-03T12:48:04.418Z,979.78
2018-01-03T12:49:14.140Z,979.7
2018-01-03T12:50:24.233Z,979.78
2018-01-03T12:51:34.179Z,979.61
2018-01-03T12:52:44.149Z,979.91
2018-01-03T12:53:54.115Z,979.82
2018-01-03T12:55:03.833Z,979.76
2018-01-03T12:56:13.542Z,980.04
2018-01-03T12:57:23.269Z,979.89
2018-01-03T12:58:33.237Z,980.01
2018-01-03T12:59:43.196Z,979.81
2018-01-03T13:00:52.889Z,979.8
2018-01-03T13:02:02.880Z,979.81
2018-01-03T13:03:12.847Z,979.85
2018-01-03T13:04:22.794Z,979.82
2018-01-03T13:05:32.744Z,979.87
2018-01-03T13:06:42.701Z,979.89
2018-01-03T13:07:52.453Z,980.13
2018-01-03T13:09:02.422Z,979.99
2018-01-03T13:10:12.386Z,979.82
2018-01-03T13:11:22.354Z,980.06
2018-01-03T13:12:32.298Z,979.99
2018-01-03T13:13:42.261Z,980.22
2018-01-03T13:14:51.969Z,980.1
2018-01-03T13:16:01.938Z,980.32
2018-01-03T13:17:11.856Z,980.23
2018-01-03T13:18:21.808Z,980.31
2018-01-03T13:19:31.266Z,980.36
2018-01-03T13:20:40.972Z,980.32
2018-01-03T13:21:50.925Z,980.5
2018-01-03T13:23:00.877Z,980.57
2018-01-03T13:24:10.840Z,980.61
2018-01-03T13:25:20.793Z,980.41
2018-01-03T13:26:30.746Z,980.53
2018-01-03T13:27:40.703Z,980.65
2018-01-03T13:28:50.660Z,980.5
2018-01-03T13:30:00.367Z,980.71
2018-01-03T13:31:10.309Z,980.66
2018-01-03T13:32:20.324Z,980.75
2018-01-03T13:33:30.317Z,980.69
2018-01-03T13:34:40.288Z,980.64
2018-01-03T13:35:50.258Z,980.67
2018-01-03T13:37:00.218Z,980.79
2018-01-03T13:38:10.177Z,980.82
2018-01-03T13:39:20.120Z,980.9
2018-01-03T13:40:30.062Z,980.82
2018-01-03T13:41:40.023Z,980.8
2018-01-03T13:42:50.033Z,980.91
2018-01-03T13:43:59.995Z,980.75
2018-01-03T13:45:09.963Z,980.8
2018-01-03T13:46:19.929Z,980.77
2018-01-03T13:47:29.634Z,980.8
2018-01-03T13:48:39.342Z,980.82
2018-01-03T13:49:49.302Z,980.87
2018-01-03T13:50:59.014Z,980.85
2018-01-03T13:52:08.975Z,980.83
2018-01-03T13:53:18.934Z,980.86
2018-01-03T13:54:28.628Z,980.8
2018-01-03T13:55:38.583Z,980.89
2018-01-03T13:56:48.544Z,980.86
2018-01-03T13:57:58.514Z,980.88
2018-01-03T13:59:08.227Z,980.84
2018-01-03T14:00:18.176Z,980.87
2018-01-03T14:01:27.885Z,980.9
2018-01-03T14:02:37.858Z,980.9
2018-01-03T14:03:47.580Z,980.91
2018-01-03T14:04:57.552Z,981.1
2018-01-03T14:06:07.509Z,980.86
2018-01-03T14:07:17.464Z,980.92
2018-01-03T14:08:27.190Z,980.93
2018-01-03T14:09:37.152Z,981.01
2018-01-03T14:10:47.105Z,981
2018-01-03T14:11:56.798Z,980.94
2018-01-03T14:13:06.771Z,980.97
2018-01-03T14:14:16.486Z,981.02
2018-01-03T14:15:26.456Z,981.03
2018-01-03T14:16:36.470Z,981.04
2018-01-03T14:17:46.436Z,981.1
2018-01-03T14:18:56.447Z,981.06
2018-01-03T14:20:06.408Z,981.08
2018-01-03T14:21:16.679Z,981.11
2018-01-03T14:22:26.373Z,981.09
2018-01-03T14:23:36.331Z,981.26
2018-01-03T14:24:46.318Z,981.13
2018-01-03T14:25:56.261Z,981.19
2018-01-03T14:27:05.696Z,981.14
2018-01-03T14:28:15.650Z,981.21
2018-01-03T14:29:25.606Z,981.16
2018-01-03T14:30:35.579Z,981.16
2018-01-03T14:31:45.525Z,981.18
2018-01-03T14:32:55.224Z,981.12
2018-01-03T14:34:05.179Z,981.32
2018-01-03T14:35:15.148Z,981.17
2018-01-03T14:36:25.094Z,981.25
2018-01-03T14:37:34.800Z,981.21
2018-01-03T14:38:44.752Z,981.33
2018-01-03T14:39:54.726Z,981.36
2018-01-03T14:41:04.695Z,981.32
2018-01-03T14:42:14.431Z,981.28
2018-01-03T14:43:24.126Z,981.31
2018-01-03T14:44:34.070Z,981.24